Terminal Aerodrome Forecast
Issued by NWS

Current Version | Previous Version | Text Only | Print | Product List | Glossary On
Versions: 1 2 3 4 5 6 7 8 9 10 11 12 13 14
000
FTUS45 KREV 072341
TAFMMH
TAF
KMMH 072341Z 0800/0824 18007KT P6SM BKN060 OVC100
     FM080300 29007KT P6SM VCSH SCT045 OVC060
     FM080600 27010KT 3SM -SN BKN020 OVC045
     FM081800 23012G21KT P6SM VCSH SCT025 OVC060=

USA.gov is the U.S. government's official web portal to all federal, state and local government web resources and services.